sensor_id;sensor_type;location;lat;lon;timestamp;P1;durP1;ratioP1;P2;durP2;ratioP2
70455;SDS011;57916;51.996;5.180;2023-06-14T00:00:15;10.45;;;2.40;;
70455;SDS011;57916;51.996;5.180;2023-06-14T00:02:43;2.97;;;2.50;;
70455;SDS011;57916;51.996;5.180;2023-06-14T00:05:10;5.28;;;2.30;;
70455;SDS011;57916;51.996;5.180;2023-06-14T00:07:39;9.90;;;2.80;;
70455;SDS011;57916;51.996;5.180;2023-06-14T00:10:11;5.15;;;2.55;;
70455;SDS011;57916;51.996;5.180;2023-06-14T00:12:38;6.93;;;2.55;;
70455;SDS011;57916;51.996;5.180;2023-06-14T00:15:06;3.90;;;2.20;;
70455;SDS011;57916;51.996;5.180;2023-06-14T00:17:36;7.80;;;2.72;;
70455;SDS011;57916;51.996;5.180;2023-06-14T00:20:05;3.70;;;2.50;;
70455;SDS011;57916;51.996;5.180;2023-06-14T00:22:33;4.80;;;2.60;;
70455;SDS011;57916;51.996;5.180;2023-06-14T00:25:00;7.32;;;2.42;;
70455;SDS011;57916;51.996;5.180;2023-06-14T00:27:45;5.80;;;2.50;;
70455;SDS011;57916;51.996;5.180;2023-06-14T00:30:14;6.32;;;2.45;;
70455;SDS011;57916;51.996;5.180;2023-06-14T00:32:41;4.57;;;2.30;;
70455;SDS011;57916;51.996;5.180;2023-06-14T00:35:09;4.28;;;2.35;;
70455;SDS011;57916;51.996;5.180;2023-06-14T00:37:37;5.17;;;2.60;;
70455;SDS011;57916;51.996;5.180;2023-06-14T00:40:04;6.18;;;2.45;;
70455;SDS011;57916;51.996;5.180;2023-06-14T00:42:32;6.25;;;2.65;;
70455;SDS011;57916;51.996;5.180;2023-06-14T00:45:00;4.57;;;2.70;;
70455;SDS011;57916;51.996;5.180;2023-06-14T00:47:27;7.43;;;2.60;;
70455;SDS011;57916;51.996;5.180;2023-06-14T00:49:54;4.40;;;2.90;;
70455;SDS011;57916;51.996;5.180;2023-06-14T00:52:22;6.07;;;2.50;;
70455;SDS011;57916;51.996;5.180;2023-06-14T00:54:50;3.28;;;2.53;;
70455;SDS011;57916;51.996;5.180;2023-06-14T00:57:17;5.40;;;2.30;;
70455;SDS011;57916;51.996;5.180;2023-06-14T00:59:47;4.43;;;2.45;;
70455;SDS011;57916;51.996;5.180;2023-06-14T01:02:15;4.05;;;2.25;;
70455;SDS011;57916;51.996;5.180;2023-06-14T01:04:46;9.88;;;2.42;;
70455;SDS011;57916;51.996;5.180;2023-06-14T01:10:12;9.70;;;2.67;;
70455;SDS011;57916;51.996;5.180;2023-06-14T01:15:41;5.47;;;2.35;;
70455;SDS011;57916;51.996;5.180;2023-06-14T01:18:10;8.27;;;2.53;;
70455;SDS011;57916;51.996;5.180;2023-06-14T01:20:45;8.00;;;2.70;;
70455;SDS011;57916;51.996;5.180;2023-06-14T01:23:17;6.20;;;2.45;;
70455;SDS011;57916;51.996;5.180;2023-06-14T01:25:45;7.07;;;2.83;;
70455;SDS011;57916;51.996;5.180;2023-06-14T01:28:13;6.53;;;2.50;;
70455;SDS011;57916;51.996;5.180;2023-06-14T01:30:44;6.28;;;2.50;;
70455;SDS011;57916;51.996;5.180;2023-06-14T01:33:20;11.47;;;2.80;;
70455;SDS011;57916;51.996;5.180;2023-06-14T01:35:49;6.93;;;2.58;;
70455;SDS011;57916;51.996;5.180;2023-06-14T01:38:22;10.60;;;2.67;;
70455;SDS011;57916;51.996;5.180;2023-06-14T01:40:51;5.75;;;2.55;;
70455;SDS011;57916;51.996;5.180;2023-06-14T01:43:22;5.15;;;2.50;;
70455;SDS011;57916;51.996;5.180;2023-06-14T01:45:49;7.25;;;2.63;;
70455;SDS011;57916;51.996;5.180;2023-06-14T01:48:20;8.85;;;2.60;;
70455;SDS011;57916;51.996;5.180;2023-06-14T01:50:48;7.75;;;2.50;;
70455;SDS011;57916;51.996;5.180;2023-06-14T01:53:16;6.60;;;2.58;;
70455;SDS011;57916;51.996;5.180;2023-06-14T01:55:43;7.60;;;2.70;;
70455;SDS011;57916;51.996;5.180;2023-06-14T01:58:10;10.05;;;2.95;;
70455;SDS011;57916;51.996;5.180;2023-06-14T02:00:37;4.72;;;2.38;;
70455;SDS011;57916;51.996;5.180;2023-06-14T02:03:04;6.93;;;2.55;;
70455;SDS011;57916;51.996;5.180;2023-06-14T02:05:31;10.20;;;2.80;;
70455;SDS011;57916;51.996;5.180;2023-06-14T02:07:58;4.47;;;2.50;;
70455;SDS011;57916;51.996;5.180;2023-06-14T02:10:26;13.68;;;2.80;;
70455;SDS011;57916;51.996;5.180;2023-06-14T02:12:54;10.52;;;2.60;;
70455;SDS011;57916;51.996;5.180;2023-06-14T02:15:21;7.90;;;2.75;;
70455;SDS011;57916;51.996;5.180;2023-06-14T02:17:48;7.95;;;2.72;;
70455;SDS011;57916;51.996;5.180;2023-06-14T02:20:16;5.70;;;2.58;;
70455;SDS011;57916;51.996;5.180;2023-06-14T02:22:45;2.65;;;2.38;;
70455;SDS011;57916;51.996;5.180;2023-06-14T02:25:12;4.45;;;2.60;;
70455;SDS011;57916;51.996;5.180;2023-06-14T02:27:39;7.03;;;2.67;;
70455;SDS011;57916;51.996;5.180;2023-06-14T02:30:07;6.53;;;2.72;;
70455;SDS011;57916;51.996;5.180;2023-06-14T02:32:34;3.88;;;2.40;;
70455;SDS011;57916;51.996;5.180;2023-06-14T02:35:02;5.10;;;2.65;;
70455;SDS011;57916;51.996;5.180;2023-06-14T02:37:30;10.02;;;2.60;;
70455;SDS011;57916;51.996;5.180;2023-06-14T02:39:57;5.00;;;2.47;;
70455;SDS011;57916;51.996;5.180;2023-06-14T02:42:25;6.10;;;2.80;;
70455;SDS011;57916;51.996;5.180;2023-06-14T02:44:52;4.25;;;2.55;;
70455;SDS011;57916;51.996;5.180;2023-06-14T02:47:20;6.63;;;2.40;;
70455;SDS011;57916;51.996;5.180;2023-06-14T02:49:47;8.95;;;2.80;;
70455;SDS011;57916;51.996;5.180;2023-06-14T02:52:14;7.57;;;2.80;;
70455;SDS011;57916;51.996;5.180;2023-06-14T02:54:42;7.73;;;3.00;;
70455;SDS011;57916;51.996;5.180;2023-06-14T02:57:09;7.30;;;2.65;;
70455;SDS011;57916;51.996;5.180;2023-06-14T02:59:38;7.65;;;2.35;;
70455;SDS011;57916;51.996;5.180;2023-06-14T03:02:05;5.90;;;2.63;;
70455;SDS011;57916;51.996;5.180;2023-06-14T03:04:33;12.15;;;2.92;;
70455;SDS011;57916;51.996;5.180;2023-06-14T03:07:08;11.65;;;2.88;;
70455;SDS011;57916;51.996;5.180;2023-06-14T03:09:38;10.30;;;2.60;;
70455;SDS011;57916;51.996;5.180;2023-06-14T03:12:07;7.30;;;2.80;;
70455;SDS011;57916;51.996;5.180;2023-06-14T03:14:35;3.95;;;2.67;;
70455;SDS011;57916;51.996;5.180;2023-06-14T03:17:03;4.43;;;2.67;;
70455;SDS011;57916;51.996;5.180;2023-06-14T03:19:33;7.13;;;2.70;;
70455;SDS011;57916;51.996;5.180;2023-06-14T03:22:02;5.60;;;2.70;;
70455;SDS011;57916;51.996;5.180;2023-06-14T03:24:31;9.07;;;2.60;;
70455;SDS011;57916;51.996;5.180;2023-06-14T03:27:08;8.95;;;2.50;;
70455;SDS011;57916;51.996;5.180;2023-06-14T03:29:39;5.85;;;2.75;;
70455;SDS011;57916;51.996;5.180;2023-06-14T03:32:07;8.05;;;2.60;;
70455;SDS011;57916;51.996;5.180;2023-06-14T03:34:37;19.88;;;2.90;;
70455;SDS011;57916;51.996;5.180;2023-06-14T03:37:13;32.15;;;3.70;;
70455;SDS011;57916;51.996;5.180;2023-06-14T03:39:40;8.98;;;2.83;;
70455;SDS011;57916;51.996;5.180;2023-06-14T03:42:16;9.80;;;3.00;;
70455;SDS011;57916;51.996;5.180;2023-06-14T03:44:45;6.15;;;2.80;;
70455;SDS011;57916;51.996;5.180;2023-06-14T03:47:13;8.88;;;3.10;;
70455;SDS011;57916;51.996;5.180;2023-06-14T03:49:40;10.35;;;3.25;;
70455;SDS011;57916;51.996;5.180;2023-06-14T03:52:07;6.30;;;2.95;;
70455;SDS011;57916;51.996;5.180;2023-06-14T03:54:36;8.45;;;3.05;;
70455;SDS011;57916;51.996;5.180;2023-06-14T03:57:06;8.52;;;3.13;;
70455;SDS011;57916;51.996;5.180;2023-06-14T03:59:33;8.77;;;2.80;;
70455;SDS011;57916;51.996;5.180;2023-06-14T04:02:01;11.98;;;3.10;;
70455;SDS011;57916;51.996;5.180;2023-06-14T04:04:29;7.70;;;2.75;;
70455;SDS011;57916;51.996;5.180;2023-06-14T04:06:57;12.15;;;2.88;;
70455;SDS011;57916;51.996;5.180;2023-06-14T04:09:27;6.32;;;2.90;;
70455;SDS011;57916;51.996;5.180;2023-06-14T04:11:56;9.45;;;2.80;;
70455;SDS011;57916;51.996;5.180;2023-06-14T04:14:23;4.95;;;2.40;;
70455;SDS011;57916;51.996;5.180;2023-06-14T04:16:50;4.90;;;2.50;;
70455;SDS011;57916;51.996;5.180;2023-06-14T04:19:19;5.65;;;2.80;;
70455;SDS011;57916;51.996;5.180;2023-06-14T04:21:46;5.28;;;2.60;;
70455;SDS011;57916;51.996;5.180;2023-06-14T04:24:15;9.15;;;2.53;;
70455;SDS011;57916;51.996;5.180;2023-06-14T04:26:45;8.05;;;2.60;;
70455;SDS011;57916;51.996;5.180;2023-06-14T04:29:15;13.57;;;3.10;;
70455;SDS011;57916;51.996;5.180;2023-06-14T04:31:48;8.43;;;2.50;;
70455;SDS011;57916;51.996;5.180;2023-06-14T04:34:16;6.20;;;2.60;;
70455;SDS011;57916;51.996;5.180;2023-06-14T04:36:53;9.15;;;2.85;;
70455;SDS011;57916;51.996;5.180;2023-06-14T04:39:28;8.68;;;2.53;;
70455;SDS011;57916;51.996;5.180;2023-06-14T04:41:56;4.35;;;2.20;;
70455;SDS011;57916;51.996;5.180;2023-06-14T04:44:24;5.75;;;2.58;;
70455;SDS011;57916;51.996;5.180;2023-06-14T04:46:57;5.05;;;2.30;;
70455;SDS011;57916;51.996;5.180;2023-06-14T04:49:25;3.95;;;2.63;;
70455;SDS011;57916;51.996;5.180;2023-06-14T04:51:53;9.53;;;2.50;;
70455;SDS011;57916;51.996;5.180;2023-06-14T04:54:28;4.32;;;2.10;;
70455;SDS011;57916;51.996;5.180;2023-06-14T04:56:58;10.13;;;2.50;;
70455;SDS011;57916;51.996;5.180;2023-06-14T04:59:26;6.55;;;2.35;;
70455;SDS011;57916;51.996;5.180;2023-06-14T05:01:53;5.82;;;2.53;;
70455;SDS011;57916;51.996;5.180;2023-06-14T05:04:23;4.20;;;2.60;;
70455;SDS011;57916;51.996;5.180;2023-06-14T05:06:52;7.13;;;2.70;;
70455;SDS011;57916;51.996;5.180;2023-06-14T05:09:21;3.92;;;2.40;;
70455;SDS011;57916;51.996;5.180;2023-06-14T05:11:49;4.43;;;2.77;;
70455;SDS011;57916;51.996;5.180;2023-06-14T05:14:16;6.32;;;2.30;;
70455;SDS011;57916;51.996;5.180;2023-06-14T05:16:45;7.20;;;2.30;;
70455;SDS011;57916;51.996;5.180;2023-06-14T05:19:12;6.93;;;2.70;;
70455;SDS011;57916;51.996;5.180;2023-06-14T05:21:39;5.15;;;2.30;;
70455;SDS011;57916;51.996;5.180;2023-06-14T05:24:09;6.05;;;2.28;;
70455;SDS011;57916;51.996;5.180;2023-06-14T05:26:36;6.30;;;2.07;;
70455;SDS011;57916;51.996;5.180;2023-06-14T05:29:03;4.47;;;2.53;;
70455;SDS011;57916;51.996;5.180;2023-06-14T05:31:30;6.53;;;1.95;;
70455;SDS011;57916;51.996;5.180;2023-06-14T05:33:57;3.75;;;2.22;;
70455;SDS011;57916;51.996;5.180;2023-06-14T05:36:24;4.80;;;2.35;;
70455;SDS011;57916;51.996;5.180;2023-06-14T05:38:52;6.65;;;2.50;;
70455;SDS011;57916;51.996;5.180;2023-06-14T05:41:27;4.50;;;2.67;;
70455;SDS011;57916;51.996;5.180;2023-06-14T05:43:55;2.13;;;1.98;;
70455;SDS011;57916;51.996;5.180;2023-06-14T05:46:23;7.90;;;2.50;;
70455;SDS011;57916;51.996;5.180;2023-06-14T05:48:53;3.90;;;2.40;;
70455;SDS011;57916;51.996;5.180;2023-06-14T05:51:21;3.60;;;2.45;;
70455;SDS011;57916;51.996;5.180;2023-06-14T05:53:51;5.00;;;2.30;;
70455;SDS011;57916;51.996;5.180;2023-06-14T05:56:19;6.82;;;2.22;;
70455;SDS011;57916;51.996;5.180;2023-06-14T05:58:46;8.35;;;2.88;;
70455;SDS011;57916;51.996;5.180;2023-06-14T06:01:14;3.42;;;2.17;;
70455;SDS011;57916;51.996;5.180;2023-06-14T06:03:41;6.40;;;2.63;;
70455;SDS011;57916;51.996;5.180;2023-06-14T06:06:12;3.83;;;2.60;;
70455;SDS011;57916;51.996;5.180;2023-06-14T06:08:39;2.55;;;1.88;;
70455;SDS011;57916;51.996;5.180;2023-06-14T06:11:07;7.97;;;2.70;;
70455;SDS011;57916;51.996;5.180;2023-06-14T06:13:35;5.53;;;2.55;;
70455;SDS011;57916;51.996;5.180;2023-06-14T06:16:02;8.23;;;2.53;;
70455;SDS011;57916;51.996;5.180;2023-06-14T06:18:29;6.88;;;2.38;;
70455;SDS011;57916;51.996;5.180;2023-06-14T06:20:57;8.40;;;2.60;;
70455;SDS011;57916;51.996;5.180;2023-06-14T06:23:23;7.07;;;2.72;;
70455;SDS011;57916;51.996;5.180;2023-06-14T06:25:51;4.13;;;2.58;;
70455;SDS011;57916;51.996;5.180;2023-06-14T06:28:18;5.10;;;2.30;;
70455;SDS011;57916;51.996;5.180;2023-06-14T06:30:45;8.20;;;2.53;;
70455;SDS011;57916;51.996;5.180;2023-06-14T06:33:12;6.80;;;2.50;;
70455;SDS011;57916;51.996;5.180;2023-06-14T06:35:40;7.20;;;2.73;;
70455;SDS011;57916;51.996;5.180;2023-06-14T06:38:07;2.33;;;1.95;;
70455;SDS011;57916;51.996;5.180;2023-06-14T06:40:36;2.60;;;2.28;;
70455;SDS011;57916;51.996;5.180;2023-06-14T06:43:03;5.63;;;2.50;;
70455;SDS011;57916;51.996;5.180;2023-06-14T06:45:38;6.10;;;2.17;;
70455;SDS011;57916;51.996;5.180;2023-06-14T06:48:06;9.85;;;2.40;;
70455;SDS011;57916;51.996;5.180;2023-06-14T06:50:33;7.05;;;2.60;;
70455;SDS011;57916;51.996;5.180;2023-06-14T06:53:00;4.20;;;2.33;;
70455;SDS011;57916;51.996;5.180;2023-06-14T06:55:27;3.90;;;2.05;;
70455;SDS011;57916;51.996;5.180;2023-06-14T06:57:54;6.03;;;2.50;;
70455;SDS011;57916;51.996;5.180;2023-06-14T07:00:21;7.80;;;2.40;;
70455;SDS011;57916;51.996;5.180;2023-06-14T07:02:48;2.40;;;1.95;;
70455;SDS011;57916;51.996;5.180;2023-06-14T07:05:15;4.53;;;1.75;;
70455;SDS011;57916;51.996;5.180;2023-06-14T07:07:42;2.58;;;1.35;;
70455;SDS011;57916;51.996;5.180;2023-06-14T07:10:09;4.50;;;1.80;;
70455;SDS011;57916;51.996;5.180;2023-06-14T07:12:36;3.75;;;1.60;;
70455;SDS011;57916;51.996;5.180;2023-06-14T07:15:06;2.75;;;1.45;;
70455;SDS011;57916;51.996;5.180;2023-06-14T07:17:35;6.47;;;2.30;;
70455;SDS011;57916;51.996;5.180;2023-06-14T07:20:03;4.23;;;2.07;;
70455;SDS011;57916;51.996;5.180;2023-06-14T07:22:40;3.78;;;1.40;;
70455;SDS011;57916;51.996;5.180;2023-06-14T07:25:12;3.35;;;2.22;;
70455;SDS011;57916;51.996;5.180;2023-06-14T07:27:42;4.50;;;1.98;;
70455;SDS011;57916;51.996;5.180;2023-06-14T07:30:10;8.10;;;1.85;;
70455;SDS011;57916;51.996;5.180;2023-06-14T07:32:37;8.38;;;2.30;;
70455;SDS011;57916;51.996;5.180;2023-06-14T07:35:05;4.17;;;1.60;;
70455;SDS011;57916;51.996;5.180;2023-06-14T07:37:33;4.00;;;1.88;;
70455;SDS011;57916;51.996;5.180;2023-06-14T07:39:59;1.77;;;1.67;;
70455;SDS011;57916;51.996;5.180;2023-06-14T07:42:27;3.92;;;2.10;;
70455;SDS011;57916;51.996;5.180;2023-06-14T07:44:54;1.85;;;1.73;;
70455;SDS011;57916;51.996;5.180;2023-06-14T07:47:21;1.90;;;1.60;;
70455;SDS011;57916;51.996;5.180;2023-06-14T07:49:48;8.65;;;2.15;;
70455;SDS011;57916;51.996;5.180;2023-06-14T07:52:15;4.63;;;1.98;;
70455;SDS011;57916;51.996;5.180;2023-06-14T07:54:42;5.70;;;2.00;;
70455;SDS011;57916;51.996;5.180;2023-06-14T07:57:09;3.83;;;1.90;;
70455;SDS011;57916;51.996;5.180;2023-06-14T07:59:36;2.90;;;1.98;;
70455;SDS011;57916;51.996;5.180;2023-06-14T08:02:03;3.30;;;1.55;;
70455;SDS011;57916;51.996;5.180;2023-06-14T08:04:31;11.68;;;2.00;;
70455;SDS011;57916;51.996;5.180;2023-06-14T08:06:59;3.47;;;1.60;;
70455;SDS011;57916;51.996;5.180;2023-06-14T08:09:27;5.80;;;1.60;;
70455;SDS011;57916;51.996;5.180;2023-06-14T08:11:55;1.60;;;1.13;;
70455;SDS011;57916;51.996;5.180;2023-06-14T08:14:22;6.65;;;1.77;;
70455;SDS011;57916;51.996;5.180;2023-06-14T08:16:49;8.55;;;1.92;;
70455;SDS011;57916;51.996;5.180;2023-06-14T08:19:17;5.13;;;1.98;;
70455;SDS011;57916;51.996;5.180;2023-06-14T08:21:44;4.00;;;2.00;;
70455;SDS011;57916;51.996;5.180;2023-06-14T08:24:12;7.40;;;2.00;;
70455;SDS011;57916;51.996;5.180;2023-06-14T08:26:39;3.08;;;1.60;;
70455;SDS011;57916;51.996;5.180;2023-06-14T08:29:06;4.53;;;2.00;;
70455;SDS011;57916;51.996;5.180;2023-06-14T08:31:34;4.68;;;1.50;;
70455;SDS011;57916;51.996;5.180;2023-06-14T08:34:01;3.65;;;1.30;;
70455;SDS011;57916;51.996;5.180;2023-06-14T08:36:32;5.15;;;1.60;;
70455;SDS011;57916;51.996;5.180;2023-06-14T08:38:59;3.93;;;1.57;;
70455;SDS011;57916;51.996;5.180;2023-06-14T08:41:26;3.47;;;1.60;;
70455;SDS011;57916;51.996;5.180;2023-06-14T08:43:56;3.90;;;1.40;;
70455;SDS011;57916;51.996;5.180;2023-06-14T08:46:24;2.60;;;1.20;;
70455;SDS011;57916;51.996;5.180;2023-06-14T08:48:55;3.90;;;1.50;;
70455;SDS011;57916;51.996;5.180;2023-06-14T08:51:25;3.80;;;0.90;;
70455;SDS011;57916;51.996;5.180;2023-06-14T08:54:00;5.90;;;1.33;;
70455;SDS011;57916;51.996;5.180;2023-06-14T08:56:28;3.47;;;1.40;;
70455;SDS011;57916;51.996;5.180;2023-06-14T08:58:56;4.07;;;1.20;;
70455;SDS011;57916;51.996;5.180;2023-06-14T09:01:27;2.03;;;1.40;;
70455;SDS011;57916;51.996;5.180;2023-06-14T09:03:56;3.47;;;1.40;;
70455;SDS011;57916;51.996;5.180;2023-06-14T09:06:24;1.48;;;0.70;;
70455;SDS011;57916;51.996;5.180;2023-06-14T09:08:51;1.67;;;0.85;;
70455;SDS011;57916;51.996;5.180;2023-06-14T09:11:18;5.95;;;1.20;;
70455;SDS011;57916;51.996;5.180;2023-06-14T09:13:46;2.15;;;1.25;;
70455;SDS011;57916;51.996;5.180;2023-06-14T09:16:13;3.30;;;0.93;;
70455;SDS011;57916;51.996;5.180;2023-06-14T09:18:41;4.70;;;1.30;;
70455;SDS011;57916;51.996;5.180;2023-06-14T09:21:14;5.28;;;1.20;;
70455;SDS011;57916;51.996;5.180;2023-06-14T09:23:43;4.53;;;1.38;;
70455;SDS011;57916;51.996;5.180;2023-06-14T09:26:18;3.40;;;1.02;;
70455;SDS011;57916;51.996;5.180;2023-06-14T09:28:50;1.55;;;0.80;;
70455;SDS011;57916;51.996;5.180;2023-06-14T09:31:18;2.10;;;1.20;;
70455;SDS011;57916;51.996;5.180;2023-06-14T09:33:47;1.80;;;1.25;;
70455;SDS011;57916;51.996;5.180;2023-06-14T09:36:16;4.15;;;1.23;;
70455;SDS011;57916;51.996;5.180;2023-06-14T09:39:00;3.42;;;1.20;;
70455;SDS011;57916;51.996;5.180;2023-06-14T09:41:36;2.42;;;1.23;;
70455;SDS011;57916;51.996;5.180;2023-06-14T09:44:04;2.67;;;1.08;;
70455;SDS011;57916;51.996;5.180;2023-06-14T09:46:37;1.33;;;1.00;;
70455;SDS011;57916;51.996;5.180;2023-06-14T09:49:05;1.40;;;1.10;;
70455;SDS011;57916;51.996;5.180;2023-06-14T09:51:34;2.58;;;0.90;;
70455;SDS011;57916;51.996;5.180;2023-06-14T09:54:08;2.05;;;1.10;;
70455;SDS011;57916;51.996;5.180;2023-06-14T09:56:42;0.70;;;0.70;;
70455;SDS011;57916;51.996;5.180;2023-06-14T09:59:12;0.87;;;0.87;;
70455;SDS011;57916;51.996;5.180;2023-06-14T10:01:43;1.30;;;0.95;;
70455;SDS011;57916;51.996;5.180;2023-06-14T10:04:12;2.90;;;0.98;;
70455;SDS011;57916;51.996;5.180;2023-06-14T10:06:43;1.70;;;1.00;;
70455;SDS011;57916;51.996;5.180;2023-06-14T10:09:12;4.30;;;1.13;;
70455;SDS011;57916;51.996;5.180;2023-06-14T10:11:40;3.13;;;1.30;;
70455;SDS011;57916;51.996;5.180;2023-06-14T10:14:11;1.40;;;0.82;;
70455;SDS011;57916;51.996;5.180;2023-06-14T10:16:49;0.73;;;0.73;;
70455;SDS011;57916;51.996;5.180;2023-06-14T10:20:19;2.75;;;1.00;;
70455;SDS011;57916;51.996;5.180;2023-06-14T10:22:38;1.10;;;1.10;;
70455;SDS011;57916;51.996;5.180;2023-06-14T10:25:31;5.93;;;1.10;;
70455;SDS011;57916;51.996;5.180;2023-06-14T10:30:39;1.85;;;0.85;;
70455;SDS011;57916;51.996;5.180;2023-06-14T10:33:06;2.42;;;1.00;;
70455;SDS011;57916;51.996;5.180;2023-06-14T10:35:34;5.95;;;0.88;;
70455;SDS011;57916;51.996;5.180;2023-06-14T10:38:08;2.13;;;1.00;;
70455;SDS011;57916;51.996;5.180;2023-06-14T10:40:36;15.32;;;1.88;;
70455;SDS011;57916;51.996;5.180;2023-06-14T10:43:22;2.80;;;0.90;;
70455;SDS011;57916;51.996;5.180;2023-06-14T10:46:32;2.10;;;0.90;;
70455;SDS011;57916;51.996;5.180;2023-06-14T10:48:42;0.88;;;0.85;;
70455;SDS011;57916;51.996;5.180;2023-06-14T10:51:17;1.83;;;0.82;;
70455;SDS011;57916;51.996;5.180;2023-06-14T10:53:47;2.50;;;1.02;;
70455;SDS011;57916;51.996;5.180;2023-06-14T10:56:26;1.50;;;0.90;;
70455;SDS011;57916;51.996;5.180;2023-06-14T10:58:57;0.77;;;0.77;;
70455;SDS011;57916;51.996;5.180;2023-06-14T11:04:11;3.22;;;1.10;;
70455;SDS011;57916;51.996;5.180;2023-06-14T11:09:38;5.05;;;1.10;;
70455;SDS011;57916;51.996;5.180;2023-06-14T11:12:34;2.00;;;0.93;;
70455;SDS011;57916;51.996;5.180;2023-06-14T11:15:05;2.10;;;0.90;;
70455;SDS011;57916;51.996;5.180;2023-06-14T11:17:32;2.55;;;0.80;;
70455;SDS011;57916;51.996;5.180;2023-06-14T11:20:12;1.80;;;0.87;;
70455;SDS011;57916;51.996;5.180;2023-06-14T11:22:48;1.92;;;1.10;;
70455;SDS011;57916;51.996;5.180;2023-06-14T11:25:15;2.20;;;0.93;;
70455;SDS011;57916;51.996;5.180;2023-06-14T11:27:42;4.05;;;0.85;;
70455;SDS011;57916;51.996;5.180;2023-06-14T11:30:10;0.85;;;0.82;;
70455;SDS011;57916;51.996;5.180;2023-06-14T11:32:38;6.10;;;1.30;;
70455;SDS011;57916;51.996;5.180;2023-06-14T11:35:05;2.25;;;1.10;;
70455;SDS011;57916;51.996;5.180;2023-06-14T11:37:33;1.48;;;1.10;;
70455;SDS011;57916;51.996;5.180;2023-06-14T11:40:00;0.70;;;0.70;;
70455;SDS011;57916;51.996;5.180;2023-06-14T11:42:29;1.73;;;0.60;;
70455;SDS011;57916;51.996;5.180;2023-06-14T11:44:57;1.67;;;0.95;;
70455;SDS011;57916;51.996;5.180;2023-06-14T11:47:35;4.70;;;1.00;;
70455;SDS011;57916;51.996;5.180;2023-06-14T11:50:04;0.75;;;0.75;;
70455;SDS011;57916;51.996;5.180;2023-06-14T11:52:33;0.90;;;0.60;;
70455;SDS011;57916;51.996;5.180;2023-06-14T11:55:00;4.57;;;0.90;;
70455;SDS011;57916;51.996;5.180;2023-06-14T11:57:33;1.55;;;0.80;;
70455;SDS011;57916;51.996;5.180;2023-06-14T12:00:08;1.05;;;0.70;;
70455;SDS011;57916;51.996;5.180;2023-06-14T12:02:38;3.83;;;0.80;;
70455;SDS011;57916;51.996;5.180;2023-06-14T12:05:07;4.57;;;0.90;;
70455;SDS011;57916;51.996;5.180;2023-06-14T12:07:37;3.05;;;1.00;;
70455;SDS011;57916;51.996;5.180;2023-06-14T12:10:09;5.07;;;1.20;;
70455;SDS011;57916;51.996;5.180;2023-06-14T12:12:37;3.20;;;1.07;;
70455;SDS011;57916;51.996;5.180;2023-06-14T12:15:06;4.55;;;1.20;;
70455;SDS011;57916;51.996;5.180;2023-06-14T12:17:35;0.65;;;0.65;;
70455;SDS011;57916;51.996;5.180;2023-06-14T12:20:09;3.10;;;1.20;;
70455;SDS011;57916;51.996;5.180;2023-06-14T12:22:37;3.00;;;1.00;;
70455;SDS011;57916;51.996;5.180;2023-06-14T12:25:04;3.03;;;1.00;;
70455;SDS011;57916;51.996;5.180;2023-06-14T12:27:32;3.00;;;1.00;;
70455;SDS011;57916;51.996;5.180;2023-06-14T12:30:02;3.05;;;1.50;;
70455;SDS011;57916;51.996;5.180;2023-06-14T12:32:31;1.23;;;1.00;;
70455;SDS011;57916;51.996;5.180;2023-06-14T12:34:58;2.80;;;1.30;;
70455;SDS011;57916;51.996;5.180;2023-06-14T12:37:25;1.92;;;1.20;;
70455;SDS011;57916;51.996;5.180;2023-06-14T12:39:52;1.95;;;1.10;;
70455;SDS011;57916;51.996;5.180;2023-06-14T12:42:19;4.40;;;1.20;;
70455;SDS011;57916;51.996;5.180;2023-06-14T12:44:46;3.58;;;1.10;;
70455;SDS011;57916;51.996;5.180;2023-06-14T12:47:13;2.42;;;0.85;;
70455;SDS011;57916;51.996;5.180;2023-06-14T12:49:40;1.00;;;0.80;;
70455;SDS011;57916;51.996;5.180;2023-06-14T12:52:07;1.70;;;1.00;;
70455;SDS011;57916;51.996;5.180;2023-06-14T12:54:34;2.80;;;1.08;;
70455;SDS011;57916;51.996;5.180;2023-06-14T12:57:06;7.32;;;1.10;;
70455;SDS011;57916;51.996;5.180;2023-06-14T12:59:34;2.42;;;0.90;;
70455;SDS011;57916;51.996;5.180;2023-06-14T13:02:14;5.32;;;1.10;;
70455;SDS011;57916;51.996;5.180;2023-06-14T13:04:43;4.18;;;1.00;;
70455;SDS011;57916;51.996;5.180;2023-06-14T13:07:10;3.13;;;0.90;;
70455;SDS011;57916;51.996;5.180;2023-06-14T13:09:37;3.97;;;0.50;;
70455;SDS011;57916;51.996;5.180;2023-06-14T13:12:04;2.40;;;0.80;;
70455;SDS011;57916;51.996;5.180;2023-06-14T13:14:31;3.45;;;0.90;;
70455;SDS011;57916;51.996;5.180;2023-06-14T13:16:58;1.27;;;0.60;;
70455;SDS011;57916;51.996;5.180;2023-06-14T13:19:26;1.92;;;0.80;;
70455;SDS011;57916;51.996;5.180;2023-06-14T13:21:53;0.98;;;0.85;;
70455;SDS011;57916;51.996;5.180;2023-06-14T13:24:20;1.30;;;1.20;;
70455;SDS011;57916;51.996;5.180;2023-06-14T13:26:47;1.20;;;0.80;;
70455;SDS011;57916;51.996;5.180;2023-06-14T13:29:14;1.20;;;0.77;;
70455;SDS011;57916;51.996;5.180;2023-06-14T13:31:41;4.10;;;1.00;;
70455;SDS011;57916;51.996;5.180;2023-06-14T13:34:08;0.80;;;0.80;;
70455;SDS011;57916;51.996;5.180;2023-06-14T13:36:35;2.67;;;1.07;;
70455;SDS011;57916;51.996;5.180;2023-06-14T13:39:02;1.90;;;0.98;;
70455;SDS011;57916;51.996;5.180;2023-06-14T13:41:29;1.58;;;1.20;;
70455;SDS011;57916;51.996;5.180;2023-06-14T13:43:58;2.55;;;1.10;;
70455;SDS011;57916;51.996;5.180;2023-06-14T13:46:25;1.70;;;0.70;;
70455;SDS011;57916;51.996;5.180;2023-06-14T13:48:53;1.48;;;0.70;;
70455;SDS011;57916;51.996;5.180;2023-06-14T13:51:20;4.25;;;1.00;;
70455;SDS011;57916;51.996;5.180;2023-06-14T13:53:47;2.40;;;1.02;;
70455;SDS011;57916;51.996;5.180;2023-06-14T13:56:15;4.00;;;1.07;;
70455;SDS011;57916;51.996;5.180;2023-06-14T13:58:42;2.78;;;1.10;;
70455;SDS011;57916;51.996;5.180;2023-06-14T14:01:10;1.45;;;0.70;;
70455;SDS011;57916;51.996;5.180;2023-06-14T14:03:38;4.25;;;1.20;;
70455;SDS011;57916;51.996;5.180;2023-06-14T14:06:05;2.10;;;1.10;;
70455;SDS011;57916;51.996;5.180;2023-06-14T14:08:33;2.58;;;1.02;;
70455;SDS011;57916;51.996;5.180;2023-06-14T14:11:01;4.50;;;1.30;;
70455;SDS011;57916;51.996;5.180;2023-06-14T14:13:28;4.00;;;1.08;;
70455;SDS011;57916;51.996;5.180;2023-06-14T14:15:55;4.50;;;1.00;;
70455;SDS011;57916;51.996;5.180;2023-06-14T14:18:23;2.30;;;1.20;;
70455;SDS011;57916;51.996;5.180;2023-06-14T14:20:50;9.95;;;1.40;;
70455;SDS011;57916;51.996;5.180;2023-06-14T14:23:17;3.70;;;1.05;;
70455;SDS011;57916;51.996;5.180;2023-06-14T14:25:44;3.22;;;1.00;;
70455;SDS011;57916;51.996;5.180;2023-06-14T14:28:11;6.45;;;1.00;;
70455;SDS011;57916;51.996;5.180;2023-06-14T14:30:38;2.20;;;0.90;;
70455;SDS011;57916;51.996;5.180;2023-06-14T14:33:06;2.88;;;1.20;;
70455;SDS011;57916;51.996;5.180;2023-06-14T14:35:33;1.30;;;1.00;;
70455;SDS011;57916;51.996;5.180;2023-06-14T14:38:00;6.20;;;1.17;;
70455;SDS011;57916;51.996;5.180;2023-06-14T14:40:29;2.35;;;1.25;;
70455;SDS011;57916;51.996;5.180;2023-06-14T14:42:56;8.38;;;1.00;;
70455;SDS011;57916;51.996;5.180;2023-06-14T14:45:23;1.77;;;0.90;;
70455;SDS011;57916;51.996;5.180;2023-06-14T14:47:50;1.77;;;1.00;;
70455;SDS011;57916;51.996;5.180;2023-06-14T14:50:20;9.63;;;1.20;;
70455;SDS011;57916;51.996;5.180;2023-06-14T14:52:47;1.10;;;1.00;;
70455;SDS011;57916;51.996;5.180;2023-06-14T14:55:15;3.00;;;0.80;;
70455;SDS011;57916;51.996;5.180;2023-06-14T14:57:41;3.80;;;1.10;;
70455;SDS011;57916;51.996;5.180;2023-06-14T15:00:09;1.20;;;0.90;;
70455;SDS011;57916;51.996;5.180;2023-06-14T15:02:36;0.90;;;0.90;;
70455;SDS011;57916;51.996;5.180;2023-06-14T15:05:03;0.87;;;0.87;;
70455;SDS011;57916;51.996;5.180;2023-06-14T15:07:31;3.22;;;0.85;;
70455;SDS011;57916;51.996;5.180;2023-06-14T15:10:00;0.90;;;0.90;;
70455;SDS011;57916;51.996;5.180;2023-06-14T15:12:27;1.98;;;0.80;;